Palmer Park, Maryland
Current Conditions -  °F | °C
As of 1:35 PM on Monday 26 Jan 2015 (Local Time) from KCGS Reporting Station
Overcast Overcast  
Wind Chill: 26°   Ceiling: 900
Heat Index: 32°   Visibility: 5mi
Dew Point: 32°   Wind: 7mph
Humidity: 100%   Direction: 30°NNE
Pressure: 29.73"   Gusts: NA
Location:  38.9183°N, 76.8721°W
Report Text: KCGS 261835Z AUTO 03006KT 5SM OVC009 00/00 A2973 RMK AO1
Loading
Personal Weather Stations






























Interactive Weather Map New forecast layout! Learn more

10-Day Weather Forecast

Advertisements
Track Severe Weather on mobile